Terminal Aerodrome Forecast
Issued by NWS

Home | Current Version | Previous Version | Text Only | Print | Product List | Glossary On
Versions: 1 2 3 4 5 6 7 8 9 10 11 12 13 14 15 16 17 18
000
FTUS43 KICT 030721 AAA
TAFHUT
TAF AMD
KHUT 030721Z 0307/0406 17012KT P6SM VCTS BKN100CB
     FM031200 18012KT P6SM BKN100
     FM031500 18016G25KT P6SM SCT100
     FM031800 19022G32KT P6SM FEW200
     FM040100 17014KT P6SM SCT200=

USA.gov is the U.S. government's official web portal to all federal, state and local government web resources and services.